Time;durP1;ratioP1;P1;durP2;ratioP2;P2;SDS_P1;SDS_P2;PMS_P1;PMS_P2;Temp;Humidity;BMP_temperature;BMP_pressure;BME280_temperature;BME280_humidity;BME280_pressure;Samples;Min_cycle;Max_cycle;Signal;HPM_P1;HPM_P2
2023/05/18 00:00:10;;;;;;;8.02;1.63;;;8.30;5.40;;;;;;5093445;27;20501;-74
2023/05/18 00:02:36;;;;;;;6.57;2.20;;;8.30;11.00;;;;;;5092041;28;20067;-68
2023/05/18 00:05:03;;;;;;;9.15;1.25;;;8.30;12.30;;;;;;5072067;28;20563;-79
2023/05/18 00:07:32;;;;;;;8.57;1.20;;;8.20;8.70;;;;;;5057141;28;20043;-74
2023/05/18 00:10:00;;;;;;;3.53;1.05;;;8.20;12.10;;;;;;5056094;28;20059;-74
2023/05/18 00:12:26;;;;;;;6.93;1.10;;;8.20;12.70;;;;;;5093446;27;20046;-68
2023/05/18 00:14:52;;;;;;;6.13;1.25;;;8.20;14.30;;;;;;5089573;28;20039;-73
2023/05/18 00:17:19;;;;;;;6.00;1.25;;;8.20;16.00;;;;;;5098768;27;20050;-68
2023/05/18 00:19:45;;;;;;;6.43;1.35;;;8.20;15.30;;;;;;5060693;28;20035;-77
2023/05/18 00:22:17;;;;;;;9.57;1.25;;;8.20;14.00;;;;;;5060555;28;20149;-69
2023/05/18 00:24:47;;;;;;;9.23;1.40;;;8.20;11.20;;;;;;5057504;28;20047;-68
2023/05/18 00:27:13;;;;;;;5.00;1.02;;;8.10;14.30;;;;;;5089089;28;20066;-80
2023/05/18 00:29:39;;;;;;;11.52;1.52;;;8.20;15.60;;;;;;5073051;28;20089;-71
2023/05/18 00:32:05;;;;;;;8.15;1.48;;;8.10;11.60;;;;;;5074049;28;20031;-74
2023/05/18 00:34:31;;;;;;;4.55;1.23;;;8.10;13.40;;;;;;5072810;28;20054;-71
2023/05/18 00:36:57;;;;;;;8.68;1.33;;;8.10;13.70;;;;;;5070492;28;20490;-71
2023/05/18 00:39:23;;;;;;;6.30;1.30;;;8.10;12.00;;;;;;5088654;28;20040;-73
2023/05/18 00:41:48;;;;;;;6.20;1.70;;;8.10;12.60;;;;;;5090590;28;20105;-68
2023/05/18 00:44:14;;;;;;;7.38;1.88;;;8.20;12.40;;;;;;5057544;28;20048;-72
2023/05/18 00:46:42;;;;;;;4.90;1.17;;;8.20;12.60;;;;;;5084195;28;20555;-75
2023/05/18 00:49:09;;;;;;;3.67;1.33;;;8.20;15.20;;;;;;5071842;28;20500;-70
2023/05/18 00:51:36;;;;;;;5.75;1.40;;;8.20;11.70;;;;;;5072858;28;20063;-71
2023/05/18 00:54:03;;;;;;;7.40;1.80;;;8.20;13.60;;;;;;5072822;28;20337;-72
2023/05/18 00:56:32;;;;;;;4.65;1.67;;;8.20;11.80;;;;;;5072856;28;20047;-68
2023/05/18 00:59:00;;;;;;;6.23;1.10;;;8.20;10.40;;;;;;5072680;28;20118;-72
2023/05/18 01:01:28;;;;;;;8.13;1.17;;;8.20;13.10;;;;;;5088288;28;20381;-76
2023/05/18 01:03:55;;;;;;;7.82;1.42;;;8.20;11.30;;;;;;5099296;27;20082;-68
2023/05/18 01:06:24;;;;;;;5.55;1.13;;;8.20;11.50;;;;;;5071051;28;20122;-71
2023/05/18 01:08:53;;;;;;;4.35;1.42;;;8.20;8.40;;;;;;5085834;28;20058;-75
2023/05/18 01:11:36;;;;;;;5.15;1.00;;;8.20;9.70;;;;;;5092145;28;20066;-70
2023/05/18 01:14:31;;;;;;;5.28;1.10;;;8.20;9.90;;;;;;5088269;28;20047;-69
2023/05/18 01:17:13;;;;;;;9.52;1.40;;;8.20;9.10;;;;;;5072482;28;20048;-74
2023/05/18 01:19:41;;;;;;;6.90;1.50;;;8.20;11.40;;;;;;5087958;28;20048;-71
2023/05/18 01:22:28;;;;;;;6.43;2.00;;;8.20;9.50;;;;;;5090229;28;20047;-81
2023/05/18 01:25:03;;;;;;;9.57;1.70;;;8.20;13.70;;;;;;5082074;28;20233;-71
2023/05/18 01:27:36;;;;;;;5.13;1.20;;;8.20;13.20;;;;;;5067772;28;20083;-75
2023/05/18 01:30:06;;;;;;;4.82;1.30;;;8.10;12.50;;;;;;5089407;27;20611;-68
2023/05/18 01:32:39;;;;;;;5.13;1.40;;;8.20;14.80;;;;;;5086888;28;20112;-76
2023/05/18 01:35:05;;;;;;;6.00;1.00;;;8.10;18.30;;;;;;5055356;28;20043;-70
2023/05/18 01:37:31;;;;;;;10.35;1.92;;;8.20;17.70;;;;;;5071307;28;20070;-68
2023/05/18 01:39:57;;;;;;;7.93;1.17;;;8.10;18.30;;;;;;5051101;28;20040;-70
2023/05/18 01:42:26;;;;;;;7.43;1.27;;;8.10;19.00;;;;;;5067817;28;20096;-76
2023/05/18 01:44:57;;;;;;;8.13;1.20;;;8.10;19.00;;;;;;5069939;28;20126;-72
2023/05/18 01:47:25;;;;;;;6.95;1.60;;;8.10;14.70;;;;;;5071490;28;20501;-76
2023/05/18 01:50:00;;;;;;;6.88;1.38;;;8.10;16.20;;;;;;5087769;28;20123;-73
2023/05/18 01:52:38;;;;;;;7.10;1.58;;;8.10;17.00;;;;;;5097031;27;20043;-73
2023/05/18 01:55:05;;;;;;;6.30;1.20;;;8.10;14.70;;;;;;5092427;28;20044;-73
2023/05/18 01:57:32;;;;;;;9.15;1.40;;;8.10;15.00;;;;;;5070853;28;20391;-72
2023/05/18 02:00:03;;;;;;;2.35;0.98;;;8.10;15.60;;;;;;5071372;28;20515;-72
2023/05/18 02:02:29;;;;;;;8.32;1.30;;;8.10;13.80;;;;;;5071581;28;20044;-70
2023/05/18 02:04:55;;;;;;;4.53;1.08;;;8.10;14.10;;;;;;5088545;28;20405;-71
2023/05/18 02:07:21;;;;;;;9.13;1.30;;;8.10;14.80;;;;;;5070422;28;20047;-72
2023/05/18 02:09:47;;;;;;;5.97;1.00;;;8.10;14.30;;;;;;5062841;28;20101;-71
2023/05/18 02:12:13;;;;;;;5.97;1.23;;;8.10;13.70;;;;;;5081641;28;20354;-71
2023/05/18 02:14:39;;;;;;;3.05;1.15;;;8.10;15.10;;;;;;5088707;28;20130;-77
2023/05/18 02:17:05;;;;;;;9.23;1.35;;;8.10;15.80;;;;;;5071009;28;20508;-68
2023/05/18 02:19:32;;;;;;;5.55;1.40;;;8.10;14.90;;;;;;5086831;28;20043;-70
2023/05/18 02:21:58;;;;;;;2.13;0.98;;;8.10;15.40;;;;;;5070646;28;20040;-75
2023/05/18 02:24:24;;;;;;;6.63;1.30;;;8.10;18.60;;;;;;5062745;28;20079;-75
2023/05/18 02:26:50;;;;;;;6.45;1.38;;;8.10;19.50;;;;;;5071069;28;20085;-71
2023/05/18 02:29:17;;;;;;;6.78;1.38;;;8.10;18.20;;;;;;5070328;28;20052;-80
2023/05/18 02:31:43;;;;;;;4.18;1.38;;;8.10;15.20;;;;;;5070295;28;20188;-76
2023/05/18 02:34:09;;;;;;;2.90;1.17;;;8.10;18.30;;;;;;5075088;28;20130;-74
2023/05/18 02:36:36;;;;;;;8.25;1.80;;;8.10;17.30;;;;;;5071340;28;20066;-71
2023/05/18 02:39:03;;;;;;;8.32;1.40;;;8.10;16.10;;;;;;5071000;28;20490;-74
2023/05/18 02:41:29;;;;;;;5.57;1.00;;;8.10;13.70;;;;;;5069319;28;20082;-71
2023/05/18 02:43:55;;;;;;;6.80;1.10;;;8.10;17.90;;;;;;5078773;28;20089;-73
2023/05/18 02:46:21;;;;;;;13.88;2.03;;;8.10;11.30;;;;;;5072800;28;20047;-68
2023/05/18 02:48:46;;;;;;;6.45;1.30;;;8.10;13.70;;;;;;5077217;28;20272;-74
2023/05/18 02:51:12;;;;;;;5.38;0.90;;;8.10;19.60;;;;;;5071230;28;20515;-73
2023/05/18 02:53:38;;;;;;;10.20;1.60;;;8.10;17.70;;;;;;5087212;28;20035;-70
2023/05/18 02:56:04;;;;;;;8.82;1.25;;;8.10;12.50;;;;;;5097445;28;20035;-72
2023/05/18 02:58:30;;;;;;;4.82;1.00;;;8.10;14.10;;;;;;5093181;28;20417;-71
2023/05/18 03:00:58;;;;;;;7.30;1.35;;;8.10;13.10;;;;;;5041633;28;20047;-75
2023/05/18 03:03:25;;;;;;;6.18;1.40;;;8.10;16.10;;;;;;5090665;28;20048;-70
2023/05/18 03:05:53;;;;;;;4.32;0.90;;;8.10;18.60;;;;;;5058694;28;20465;-68
2023/05/18 03:08:21;;;;;;;7.28;1.30;;;8.10;16.50;;;;;;5098572;27;21189;-79
2023/05/18 03:10:48;;;;;;;4.80;1.27;;;8.00;9.50;;;;;;5073845;28;20549;-68
2023/05/18 03:13:13;;;;;;;13.27;1.42;;;8.10;12.50;;;;;;5058071;28;20055;-77
2023/05/18 03:15:39;;;;;;;5.95;1.10;;;8.10;12.50;;;;;;5073513;28;20062;-72
2023/05/18 03:18:05;;;;;;;10.65;1.70;;;8.10;13.00;;;;;;5075091;28;20153;-69
2023/05/18 03:20:31;;;;;;;6.00;1.27;;;8.00;16.30;;;;;;5124257;27;20169;-68
2023/05/18 03:22:57;;;;;;;4.72;1.33;;;8.00;15.50;;;;;;5074449;28;20134;-71
2023/05/18 03:25:24;;;;;;;4.00;1.20;;;8.00;15.80;;;;;;5073364;28;20053;-72
2023/05/18 03:27:51;;;;;;;7.78;1.40;;;8.00;14.60;;;;;;5058198;27;20035;-71
2023/05/18 03:30:20;;;;;;;4.60;1.10;;;8.00;14.00;;;;;;5074555;28;20047;-71
2023/05/18 03:32:46;;;;;;;7.07;1.52;;;8.00;17.80;;;;;;5073159;28;20486;-70
2023/05/18 03:35:13;;;;;;;8.80;1.30;;;8.00;15.30;;;;;;5090438;28;20102;-76
2023/05/18 03:37:39;;;;;;;7.78;1.55;;;8.00;16.40;;;;;;5072677;28;20490;-69
2023/05/18 03:40:11;;;;;;;7.25;1.33;;;8.00;18.20;;;;;;5075067;28;20067;-73
2023/05/18 03:42:38;;;;;;;5.60;0.98;;;8.00;16.00;;;;;;5073315;28;20143;-74
2023/05/18 03:45:05;;;;;;;7.72;1.48;;;8.00;13.90;;;;;;5073648;28;20039;-75
2023/05/18 03:47:31;;;;;;;4.40;1.80;;;8.00;12.10;;;;;;5056485;28;20138;-71
2023/05/18 03:49:56;;;;;;;7.53;1.50;;;8.00;13.20;;;;;;5063712;27;20093;-68
2023/05/18 03:52:22;;;;;;;9.43;1.20;;;8.00;16.10;;;;;;5073119;28;20052;-73
2023/05/18 03:54:49;;;;;;;6.15;1.67;;;8.00;8.90;;;;;;5072811;28;20142;-74
2023/05/18 03:57:16;;;;;;;6.53;1.35;;;8.00;14.30;;;;;;5073651;28;20119;-70
2023/05/18 03:59:42;;;;;;;4.30;1.33;;;8.00;17.50;;;;;;5077138;27;20073;-70
2023/05/18 04:02:09;;;;;;;3.85;1.27;;;8.00;20.10;;;;;;5073581;28;20047;-74
2023/05/18 04:04:36;;;;;;;6.35;1.23;;;8.00;16.10;;;;;;5072737;28;20075;-71
2023/05/18 04:07:04;;;;;;;4.00;1.25;;;8.00;19.50;;;;;;5086613;28;20044;-74
2023/05/18 04:09:31;;;;;;;7.78;1.40;;;8.00;17.70;;;;;;5073022;28;20410;-70
2023/05/18 04:11:57;;;;;;;3.80;1.20;;;8.00;17.70;;;;;;5073276;28;20580;-72
2023/05/18 04:14:26;;;;;;;5.57;1.23;;;8.00;17.80;;;;;;5073374;28;20135;-71
2023/05/18 04:16:53;;;;;;;3.53;1.02;;;8.10;20.50;;;;;;5056484;28;20122;-68
2023/05/18 04:19:20;;;;;;;4.05;1.00;;;8.10;21.50;;;;;;5090225;28;20051;-76
2023/05/18 04:21:47;;;;;;;7.15;1.48;;;8.20;26.30;;;;;;5089785;28;20050;-74
2023/05/18 04:24:15;;;;;;;6.40;1.27;;;8.10;24.30;;;;;;5039848;28;20418;-70
2023/05/18 04:26:41;;;;;;;9.20;1.50;;;8.20;25.00;;;;;;5089960;28;20054;-71
2023/05/18 04:29:09;;;;;;;3.13;1.30;;;8.20;13.10;;;;;;5089570;28;20053;-69
2023/05/18 04:31:41;;;;;;;8.60;1.30;;;8.20;12.40;;;;;;5073684;28;20051;-68
2023/05/18 04:34:07;;;;;;;3.92;1.10;;;8.20;14.90;;;;;;5103102;27;20051;-68
2023/05/18 04:36:33;;;;;;;4.30;1.50;;;8.20;16.10;;;;;;5074117;28;20053;-80
2023/05/18 04:39:02;;;;;;;6.15;1.08;;;8.30;16.30;;;;;;5089078;28;20054;-72
2023/05/18 04:41:28;;;;;;;6.82;1.38;;;8.30;20.60;;;;;;5091969;27;20448;-70
2023/05/18 04:43:54;;;;;;;7.32;1.02;;;8.40;23.70;;;;;;5057052;28;20043;-69
2023/05/18 04:46:22;;;;;;;6.28;2.22;;;8.40;29.40;;;;;;5088884;28;20039;-77
2023/05/18 04:48:48;;;;;;;3.35;1.05;;;8.50;29.80;;;;;;5072318;28;20051;-70
2023/05/18 04:51:20;;;;;;;9.18;1.35;;;8.60;25.30;;;;;;5072172;28;20585;-73
2023/05/18 04:53:48;;;;;;;8.85;1.23;;;8.60;20.20;;;;;;5078995;28;20047;-74
2023/05/18 04:56:21;;;;;;;4.30;1.60;;;8.60;16.00;;;;;;5088882;28;20079;-72
2023/05/18 04:58:48;;;;;;;9.57;1.73;;;8.70;19.50;;;;;;5071867;28;20039;-74
2023/05/18 05:01:14;;;;;;;7.43;1.45;;;8.80;27.00;;;;;;5088962;28;20079;-76
2023/05/18 05:03:43;;;;;;;5.03;1.40;;;8.90;17.20;;;;;;5089161;28;20044;-68
2023/05/18 05:06:10;;;;;;;7.95;1.30;;;8.90;16.90;;;;;;5089208;28;20051;-69
2023/05/18 05:08:37;;;;;;;4.20;1.23;;;9.00;15.40;;;;;;5088015;28;20501;-73
2023/05/18 05:11:03;;;;;;;5.30;1.25;;;9.10;17.80;;;;;;5075274;28;20505;-70
2023/05/18 05:13:29;;;;;;;7.13;1.65;;;9.10;23.20;;;;;;5072551;28;20040;-73
2023/05/18 05:15:54;;;;;;;4.75;1.02;;;9.20;20.30;;;;;;5071840;28;20051;-73
2023/05/18 05:18:20;;;;;;;5.50;1.10;;;9.20;11.00;;;;;;5071636;28;20054;-67
2023/05/18 05:20:47;;;;;;;7.18;1.23;;;9.20;15.30;;;;;;5070528;28;20032;-69
2023/05/18 05:23:12;;;;;;;8.88;1.33;;;9.30;11.90;;;;;;5071982;28;20063;-75
2023/05/18 05:25:38;;;;;;;7.03;2.13;;;9.30;12.30;;;;;;5056825;27;20036;-69
2023/05/18 05:28:04;;;;;;;7.25;1.17;;;9.40;16.60;;;;;;5079466;28;20039;-71
2023/05/18 05:30:30;;;;;;;9.05;1.83;;;9.50;12.50;;;;;;5038408;28;20043;-74
2023/05/18 05:32:56;;;;;;;7.65;1.15;;;9.50;15.00;;;;;;5089376;28;20044;-74
2023/05/18 05:35:21;;;;;;;4.63;1.25;;;9.60;15.00;;;;;;5071297;28;20051;-71
2023/05/18 05:37:47;;;;;;;4.88;1.05;;;9.60;5.30;;;;;;5070845;28;20140;-72
2023/05/18 05:40:13;;;;;;;6.85;1.58;;;9.60;9.60;;;;;;5122713;27;20548;-69
2023/05/18 05:42:40;;;;;;;8.80;1.58;;;9.70;14.40;;;;;;5071613;27;20051;-72
2023/05/18 05:45:07;;;;;;;7.00;1.08;;;9.70;5.40;;;;;;5074643;28;20047;-74
2023/05/18 05:47:33;;;;;;;6.25;1.42;;;9.70;7.40;;;;;;5087557;28;20096;-71
2023/05/18 05:49:58;;;;;;;6.30;1.40;;;9.70;7.60;;;;;;5070988;28;20035;-70
2023/05/18 05:52:27;;;;;;;10.80;1.45;;;9.70;4.40;;;;;;5071182;28;20058;-73
2023/05/18 05:54:53;;;;;;;4.03;1.30;;;9.70;5.10;;;;;;5088852;28;20512;-69
2023/05/18 05:57:19;;;;;;;5.68;1.42;;;9.80;12.50;;;;;;5054615;28;20058;-69
2023/05/18 05:59:45;;;;;;;4.22;1.05;;;9.90;13.70;;;;;;5070490;28;20040;-71
2023/05/18 06:02:11;;;;;;;4.25;0.98;;;9.90;7.40;;;;;;5087797;28;20490;-72
2023/05/18 06:04:37;;;;;;;13.15;1.20;;;9.90;8.80;;;;;;5071894;28;20093;-72
2023/05/18 06:07:02;;;;;;;8.40;1.35;;;10.00;11.60;;;;;;5087727;28;20054;-75
2023/05/18 06:09:28;;;;;;;3.60;1.17;;;10.10;11.50;;;;;;5062401;28;20138;-76
2023/05/18 06:11:55;;;;;;;4.97;0.85;;;10.10;1.80;;;;;;5079458;28;20047;-68
2023/05/18 06:14:21;;;;;;;7.55;1.10;;;10.00;1.00;;;;;;5053745;28;20050;-72
2023/05/18 06:16:47;;;;;;;9.50;1.70;;;10.10;1.00;;;;;;5088322;28;20043;-78
2023/05/18 06:19:12;;;;;;;7.70;1.20;;;10.20;1.40;;;;;;5070653;28;20135;-74
2023/05/18 06:21:38;;;;;;;5.03;1.15;;;10.30;3.30;;;;;;5060068;27;20031;-68
2023/05/18 06:24:04;;;;;;;13.00;3.10;;;10.50;1.10;;;;;;5053912;28;20043;-68
2023/05/18 06:26:31;;;;;;;4.32;1.45;;;10.60;6.10;;;;;;5057610;28;20035;-69
2023/05/18 06:28:56;;;;;;;5.35;1.40;;;10.80;1.00;;;;;;5104568;28;20401;-74
2023/05/18 06:31:22;;;;;;;11.57;1.25;;;10.90;3.00;;;;;;5050669;28;20048;-69
2023/05/18 06:33:48;;;;;;;6.68;1.65;;;11.00;1.00;;;;;;5085506;28;20047;-70
2023/05/18 06:36:17;;;;;;;6.00;1.40;;;11.10;1.60;;;;;;5070687;28;20044;-70
2023/05/18 06:38:43;;;;;;;7.57;1.13;;;11.20;4.30;;;;;;5071811;28;20047;-76
2023/05/18 06:41:09;;;;;;;3.80;1.20;;;11.20;1.60;;;;;;5086846;28;20051;-73
2023/05/18 06:43:35;;;;;;;7.50;1.45;;;11.20;1.00;;;;;;5086527;28;20036;-70
2023/05/18 06:46:03;;;;;;;4.72;1.33;;;11.20;1.00;;;;;;5070622;28;20036;-73
2023/05/18 06:48:29;;;;;;;6.70;1.50;;;11.30;1.00;;;;;;5086432;28;20100;-68
2023/05/18 06:50:55;;;;;;;8.38;1.13;;;11.40;1.00;;;;;;5037254;28;20439;-69
2023/05/18 06:53:25;;;;;;;4.63;1.13;;;11.50;1.00;;;;;;5086869;28;20040;-70
2023/05/18 06:55:50;;;;;;;3.40;0.90;;;11.60;1.00;;;;;;5070025;28;20031;-74
2023/05/18 06:58:16;;;;;;;4.22;2.03;;;11.70;1.00;;;;;;5070283;28;20080;-68
2023/05/18 07:00:42;;;;;;;5.20;1.15;;;11.70;1.00;;;;;;5070271;28;20048;-72
2023/05/18 07:03:08;;;;;;;10.40;1.48;;;11.60;1.00;;;;;;5053908;28;20401;-76
2023/05/18 07:05:33;;;;;;;3.55;1.17;;;11.60;1.00;;;;;;5083275;28;20048;-76
2023/05/18 07:07:59;;;;;;;4.88;1.05;;;11.70;1.00;;;;;;5087725;28;20040;-70
2023/05/18 07:10:25;;;;;;;7.05;1.40;;;11.90;1.00;;;;;;5066878;28;20509;-78
2023/05/18 07:12:50;;;;;;;6.13;1.38;;;12.00;1.00;;;;;;5087007;28;20055;-77
2023/05/18 07:15:16;;;;;;;3.47;0.90;;;12.20;1.00;;;;;;5070066;28;20126;-70
2023/05/18 07:17:43;;;;;;;5.10;1.00;;;12.30;1.00;;;;;;5070113;28;20512;-70
2023/05/18 07:20:09;;;;;;;5.40;1.20;;;12.40;1.00;;;;;;5072485;28;20090;-74
2023/05/18 07:22:35;;;;;;;3.25;1.25;;;12.30;1.00;;;;;;5065221;28;20039;-75
2023/05/18 07:25:01;;;;;;;5.32;1.45;;;12.40;1.00;;;;;;5086613;28;20096;-77
2023/05/18 07:27:27;;;;;;;10.32;1.33;;;12.50;1.00;;;;;;5069724;28;20135;-75
2023/05/18 07:29:52;;;;;;;6.60;1.20;;;12.60;1.00;;;;;;5087112;28;20039;-78
2023/05/18 07:32:18;;;;;;;11.60;1.42;;;12.50;1.00;;;;;;5091110;28;20408;-70
2023/05/18 07:34:46;;;;;;;7.18;1.73;;;12.30;1.00;;;;;;5085834;28;20039;-69
2023/05/18 07:37:12;;;;;;;4.90;1.15;;;12.20;1.00;;;;;;5096908;28;20135;-77
2023/05/18 07:39:38;;;;;;;5.35;1.17;;;12.10;1.00;;;;;;5086293;28;20044;-70
2023/05/18 07:42:04;;;;;;;8.57;1.40;;;12.10;1.00;;;;;;5074223;28;20088;-71
2023/05/18 07:44:30;;;;;;;6.40;1.23;;;12.00;1.00;;;;;;5072899;28;20055;-70
2023/05/18 07:46:56;;;;;;;5.43;1.40;;;12.00;1.00;;;;;;5090692;28;20047;-73
2023/05/18 07:49:24;;;;;;;7.38;1.60;;;12.00;1.00;;;;;;5089382;28;20039;-73
2023/05/18 07:51:51;;;;;;;6.95;1.42;;;12.20;1.00;;;;;;5074016;28;20518;-72
2023/05/18 07:54:18;;;;;;;8.48;1.38;;;12.30;1.00;;;;;;5089579;28;20043;-78
2023/05/18 07:56:43;;;;;;;4.68;1.17;;;12.50;1.00;;;;;;5073212;28;20437;-78
2023/05/18 07:59:10;;;;;;;4.18;1.17;;;12.50;1.00;;;;;;5073365;28;20039;-71
2023/05/18 08:01:37;;;;;;;9.20;1.63;;;12.50;1.00;;;;;;5072313;27;20047;-69
2023/05/18 08:04:03;;;;;;;6.50;1.40;;;12.60;1.00;;;;;;5074113;28;20116;-73
2023/05/18 08:06:30;;;;;;;9.48;1.45;;;12.70;1.00;;;;;;5089505;28;20040;-74
2023/05/18 08:08:56;;;;;;;5.22;1.38;;;13.00;1.00;;;;;;5089765;28;20123;-77
2023/05/18 08:11:22;;;;;;;5.72;1.35;;;13.20;1.00;;;;;;5055964;28;20111;-73
2023/05/18 08:13:48;;;;;;;2.55;1.10;;;13.10;1.00;;;;;;5073884;28;20050;-70
2023/05/18 08:16:14;;;;;;;6.05;1.33;;;13.10;1.00;;;;;;5072250;28;20043;-70
2023/05/18 08:18:40;;;;;;;6.70;1.35;;;13.30;1.00;;;;;;5089616;28;20051;-69
2023/05/18 08:21:08;;;;;;;3.25;1.30;;;13.30;1.00;;;;;;5056337;28;20504;-71
2023/05/18 08:23:35;;;;;;;5.65;1.55;;;13.30;1.00;;;;;;5108300;27;20503;-70
2023/05/18 08:26:02;;;;;;;4.30;1.15;;;13.40;1.00;;;;;;5090026;28;20039;-70
2023/05/18 08:28:28;;;;;;;3.33;1.15;;;13.40;1.00;;;;;;5088323;28;20632;-70
2023/05/18 08:30:54;;;;;;;4.38;1.10;;;13.60;1.00;;;;;;5074153;28;20062;-75
2023/05/18 08:33:20;;;;;;;4.68;1.23;;;13.50;1.00;;;;;;5086557;28;20048;-76
2023/05/18 08:35:46;;;;;;;3.72;1.10;;;13.50;1.00;;;;;;5088668;28;20086;-76
2023/05/18 08:38:12;;;;;;;3.78;1.15;;;13.40;1.00;;;;;;5088687;28;20043;-77
2023/05/18 08:40:57;;;;;;;6.10;1.63;;;13.40;1.00;;;;;;5089828;28;20130;-71
2023/05/18 08:43:31;;;;;;;4.82;1.30;;;13.60;1.00;;;;;;5089477;28;20498;-71
2023/05/18 08:46:20;;;;;;;3.60;1.27;;;14.00;1.00;;;;;;5089199;28;20044;-70
2023/05/18 08:48:49;;;;;;;3.55;1.27;;;14.30;1.00;;;;;;5072391;28;20044;-71
2023/05/18 08:51:18;;;;;;;2.80;1.30;;;14.60;1.00;;;;;;5067858;28;20080;-73
2023/05/18 08:53:47;;;;;;;5.30;1.58;;;14.50;1.00;;;;;;5086542;27;20054;-77
2023/05/18 08:56:14;;;;;;;7.07;1.45;;;14.40;1.00;;;;;;5066860;28;20465;-71
2023/05/18 08:58:45;;;;;;;4.50;1.08;;;14.30;1.00;;;;;;5071557;28;20116;-67
2023/05/18 09:01:12;;;;;;;8.05;1.40;;;14.40;1.00;;;;;;5087187;28;20493;-70
2023/05/18 09:03:38;;;;;;;3.45;1.00;;;14.60;1.00;;;;;;5088804;28;20447;-67
2023/05/18 09:06:05;;;;;;;3.63;1.58;;;14.50;1.00;;;;;;5088183;28;20059;-69
2023/05/18 09:08:32;;;;;;;7.82;1.63;;;14.60;1.00;;;;;;5070883;28;20097;-66
2023/05/18 09:11:00;;;;;;;8.70;1.42;;;14.50;1.00;;;;;;5085528;28;20130;-75
2023/05/18 09:13:26;;;;;;;8.05;1.40;;;14.30;1.00;;;;;;5077011;28;20051;-67
2023/05/18 09:15:52;;;;;;;7.32;1.42;;;14.10;1.00;;;;;;5118360;27;20124;-72
2023/05/18 09:18:18;;;;;;;3.63;1.10;;;13.70;1.00;;;;;;5083457;28;20047;-71
2023/05/18 09:20:44;;;;;;;4.03;1.05;;;13.70;1.00;;;;;;5122499;27;20428;-66
2023/05/18 09:23:14;;;;;;;5.57;1.30;;;13.60;1.00;;;;;;5122324;27;20120;-78
2023/05/18 09:25:44;;;;;;;6.63;1.17;;;13.30;1.00;;;;;;5087533;28;20120;-68
2023/05/18 09:28:24;;;;;;;5.05;1.35;;;13.40;1.00;;;;;;5087321;28;20054;-69
2023/05/18 09:30:52;;;;;;;10.70;1.73;;;13.50;1.00;;;;;;5087218;28;20051;-69
2023/05/18 09:33:20;;;;;;;6.85;1.38;;;13.70;1.00;;;;;;5086057;28;20050;-70
2023/05/18 09:35:47;;;;;;;6.38;1.60;;;13.60;1.00;;;;;;5068862;28;20051;-72
2023/05/18 09:38:20;;;;;;;7.95;2.55;;;13.90;1.00;;;;;;5073086;27;20545;-76
2023/05/18 09:40:49;;;;;;;6.80;1.10;;;14.00;1.00;;;;;;5076073;28;20046;-70
2023/05/18 09:43:19;;;;;;;7.68;1.25;;;13.90;1.00;;;;;;5086629;28;20039;-74
2023/05/18 09:45:47;;;;;;;3.88;1.20;;;14.00;1.00;;;;;;5086264;28;20113;-66
2023/05/18 09:48:15;;;;;;;6.45;1.60;;;14.00;1.00;;;;;;5070312;28;20156;-74
2023/05/18 09:50:43;;;;;;;7.95;1.38;;;14.30;1.00;;;;;;5051812;28;20307;-67
2023/05/18 09:53:10;;;;;;;5.20;1.35;;;14.30;1.00;;;;;;5088012;27;20054;-72
2023/05/18 09:55:47;;;;;;;5.97;1.42;;;14.50;1.00;;;;;;5071337;28;20043;-74
2023/05/18 09:58:13;;;;;;;7.05;1.40;;;14.70;1.00;;;;;;5087273;28;20055;-68
2023/05/18 10:00:50;;;;;;;6.40;1.23;;;14.70;1.00;;;;;;5104998;28;20124;-67
2023/05/18 10:03:23;;;;;;;9.52;1.38;;;14.30;1.00;;;;;;5085471;28;20387;-72
2023/05/18 10:05:50;;;;;;;6.45;1.58;;;14.00;1.00;;;;;;5087895;28;20051;-66
2023/05/18 10:08:17;;;;;;;6.68;1.27;;;13.80;1.00;;;;;;5121233;27;20043;-78
2023/05/18 10:10:45;;;;;;;7.18;1.48;;;13.40;1.00;;;;;;5075612;28;20063;-69
2023/05/18 10:13:19;;;;;;;4.63;1.27;;;13.00;1.00;;;;;;5078468;28;20091;-71
2023/05/18 10:15:48;;;;;;;6.55;1.38;;;12.80;1.00;;;;;;5080336;28;20062;-70
2023/05/18 10:18:20;;;;;;;7.43;1.40;;;12.60;1.00;;;;;;5088019;28;20043;-67
2023/05/18 10:20:47;;;;;;;8.60;1.77;;;12.70;1.00;;;;;;5070466;28;20086;-76
2023/05/18 10:23:13;;;;;;;7.13;1.55;;;13.10;1.00;;;;;;5102229;28;20056;-72
2023/05/18 10:25:43;;;;;;;4.05;1.10;;;13.20;1.00;;;;;;5096441;28;20051;-73
2023/05/18 10:28:10;;;;;;;8.02;1.42;;;13.30;1.00;;;;;;5085793;28;20052;-71
2023/05/18 10:30:39;;;;;;;4.22;1.27;;;13.10;1.00;;;;;;5085863;28;20760;-66
2023/05/18 10:33:06;;;;;;;5.83;1.63;;;13.20;1.00;;;;;;5083390;28;20581;-71
2023/05/18 10:35:32;;;;;;;7.50;1.77;;;13.20;1.00;;;;;;5089216;28;20296;-69
2023/05/18 10:38:00;;;;;;;7.93;2.17;;;13.30;1.00;;;;;;5069246;28;20043;-69
2023/05/18 10:40:27;;;;;;;10.80;1.67;;;13.50;1.00;;;;;;5069909;28;20051;-69
2023/05/18 10:42:56;;;;;;;5.05;1.30;;;13.60;1.00;;;;;;5086902;28;20561;-71
2023/05/18 10:45:22;;;;;;;4.68;1.73;;;13.70;1.00;;;;;;5086578;28;20044;-74
2023/05/18 10:47:53;;;;;;;6.63;1.63;;;13.60;1.00;;;;;;5087793;28;20047;-67
2023/05/18 10:50:21;;;;;;;7.18;1.88;;;13.80;1.00;;;;;;5086747;28;20054;-65
2023/05/18 10:52:49;;;;;;;6.10;2.00;;;14.10;1.00;;;;;;5087482;28;20036;-71
2023/05/18 10:55:15;;;;;;;6.90;1.50;;;14.20;1.00;;;;;;5086712;28;20036;-67
2023/05/18 10:57:46;;;;;;;6.88;1.23;;;14.00;1.00;;;;;;5090109;28;20055;-66
2023/05/18 11:00:12;;;;;;;4.63;1.77;;;13.70;1.00;;;;;;5087510;28;20584;-71
2023/05/18 11:02:41;;;;;;;8.55;1.60;;;13.60;1.00;;;;;;5069304;28;20167;-71
2023/05/18 11:05:08;;;;;;;7.72;1.45;;;13.60;1.00;;;;;;5070378;28;20043;-66
2023/05/18 11:07:34;;;;;;;9.70;1.63;;;13.60;1.00;;;;;;5066040;28;20607;-68
2023/05/18 11:10:09;;;;;;;8.38;2.08;;;13.50;1.00;;;;;;5084109;28;20055;-66
2023/05/18 11:12:37;;;;;;;6.47;1.48;;;13.60;1.00;;;;;;5075200;28;20082;-65
2023/05/18 11:15:04;;;;;;;8.07;1.83;;;13.60;1.00;;;;;;5086915;28;20040;-74
2023/05/18 11:17:30;;;;;;;9.25;1.30;;;13.50;1.00;;;;;;5088298;27;20470;-67
2023/05/18 11:20:08;;;;;;;5.38;1.50;;;13.60;1.00;;;;;;5086136;28;20782;-74
2023/05/18 11:22:58;;;;;;;6.53;1.70;;;13.40;1.00;;;;;;5108838;28;20455;-75
2023/05/18 11:25:30;;;;;;;8.43;1.80;;;13.30;1.00;;;;;;5073130;28;20489;-67
2023/05/18 11:28:01;;;;;;;5.28;1.52;;;13.20;1.00;;;;;;5091197;27;20071;-67
2023/05/18 11:30:29;;;;;;;7.50;1.48;;;13.00;1.00;;;;;;5091056;28;20547;-76
2023/05/18 11:33:12;;;;;;;6.22;1.83;;;13.00;1.00;;;;;;5088518;28;20032;-65
2023/05/18 11:36:07;;;;;;;8.60;1.80;;;13.00;1.00;;;;;;5073645;28;20983;-64
2023/05/18 11:38:53;;;;;;;9.20;1.73;;;13.00;1.60;;;;;;5062529;28;20047;-70
2023/05/18 11:41:57;;;;;;;6.97;1.30;;;13.00;1.80;;;;;;5074451;28;20047;-67
2023/05/18 11:44:26;;;;;;;8.85;1.25;;;12.90;1.00;;;;;;5073930;28;20051;-73
2023/05/18 11:47:03;;;;;;;8.10;1.80;;;12.90;1.90;;;;;;5089572;28;20044;-68
2023/05/18 11:49:45;;;;;;;8.95;1.73;;;12.90;9.50;;;;;;5090610;28;20040;-66
2023/05/18 11:52:11;;;;;;;8.52;1.88;;;13.10;7.30;;;;;;5088520;28;20051;-75
2023/05/18 11:54:48;;;;;;;8.88;1.55;;;13.40;1.00;;;;;;5072600;28;20048;-77
2023/05/18 11:57:15;;;;;;;5.50;1.42;;;13.50;7.30;;;;;;5086504;28;20047;-66
2023/05/18 11:59:42;;;;;;;6.50;1.60;;;13.60;5.10;;;;;;5089415;28;20048;-65
2023/05/18 12:02:10;;;;;;;4.28;1.50;;;13.60;1.00;;;;;;5091171;28;20414;-66
2023/05/18 12:04:42;;;;;;;5.32;1.73;;;13.50;1.70;;;;;;5071960;28;20054;-67
2023/05/18 12:07:08;;;;;;;8.70;2.25;;;13.60;8.50;;;;;;5073360;28;20050;-67
2023/05/18 12:09:34;;;;;;;7.85;1.42;;;13.80;4.30;;;;;;5066476;28;20070;-68
2023/05/18 12:12:01;;;;;;;4.53;1.33;;;13.60;1.00;;;;;;5083871;28;20501;-66
2023/05/18 12:14:27;;;;;;;5.43;1.48;;;13.50;1.40;;;;;;5086700;28;20044;-68
2023/05/18 12:16:55;;;;;;;8.48;1.33;;;13.40;1.90;;;;;;5088356;28;20128;-67
2023/05/18 12:19:22;;;;;;;12.45;1.98;;;13.30;5.10;;;;;;5072190;28;20482;-74
2023/05/18 12:21:48;;;;;;;7.85;1.70;;;13.20;4.20;;;;;;5085458;28;20102;-69
2023/05/18 12:24:14;;;;;;;5.63;1.60;;;13.10;7.10;;;;;;5085923;28;20044;-68
2023/05/18 12:26:40;;;;;;;10.75;1.95;;;13.20;11.90;;;;;;5083841;28;20096;-72
2023/05/18 12:29:06;;;;;;;11.50;1.90;;;13.40;6.70;;;;;;5085689;28;20043;-69
2023/05/18 12:31:31;;;;;;;2.88;1.17;;;13.60;3.20;;;;;;5085468;28;20031;-65
2023/05/18 12:34:00;;;;;;;12.05;2.17;;;13.60;9.90;;;;;;5089001;28;20096;-72
2023/05/18 12:36:26;;;;;;;4.38;1.27;;;13.90;11.70;;;;;;5108434;28;20051;-69
2023/05/18 12:38:51;;;;;;;4.88;1.70;;;14.10;3.00;;;;;;5072081;28;20058;-70
2023/05/18 12:41:29;;;;;;;7.00;1.55;;;14.20;4.30;;;;;;5108452;28;20047;-67
2023/05/18 12:43:55;;;;;;;5.32;1.40;;;14.00;3.20;;;;;;5090841;28;20083;-67
2023/05/18 12:46:22;;;;;;;7.97;1.75;;;13.90;5.20;;;;;;5051839;28;20079;-70
2023/05/18 12:48:56;;;;;;;3.90;1.40;;;13.90;5.50;;;;;;5085955;28;20488;-73
2023/05/18 12:51:29;;;;;;;9.07;1.90;;;13.70;3.50;;;;;;5087499;28;20047;-78
2023/05/18 12:53:55;;;;;;;4.15;1.50;;;13.40;5.60;;;;;;5086457;28;20080;-68
2023/05/18 12:56:24;;;;;;;11.90;1.98;;;13.30;9.20;;;;;;5087889;28;20059;-69
2023/05/18 12:58:58;;;;;;;7.28;1.63;;;13.30;9.80;;;;;;5071402;28;20047;-72
2023/05/18 13:01:24;;;;;;;14.20;2.00;;;13.50;10.20;;;;;;5088618;28;20051;-72